sensor_id;sensor_type;location;lat;lon;timestamp;temperature;humidity
909;DHT22;441;51.192;6.788;2023-03-01T00:00:02;18.80;42.00
909;DHT22;441;51.192;6.788;2023-03-01T00:02:29;18.80;42.10
909;DHT22;441;51.192;6.788;2023-03-01T00:04:56;18.70;42.00
909;DHT22;441;51.192;6.788;2023-03-01T00:07:23;18.70;42.00
909;DHT22;441;51.192;6.788;2023-03-01T00:09:50;18.70;42.10
909;DHT22;441;51.192;6.788;2023-03-01T00:12:18;18.70;42.20
909;DHT22;441;51.192;6.788;2023-03-01T00:14:45;18.70;42.30
909;DHT22;441;51.192;6.788;2023-03-01T00:17:12;18.70;42.30
909;DHT22;441;51.192;6.788;2023-03-01T00:19:39;18.70;42.20
909;DHT22;441;51.192;6.788;2023-03-01T00:22:06;18.70;42.30
909;DHT22;441;51.192;6.788;2023-03-01T00:24:32;18.70;42.30
909;DHT22;441;51.192;6.788;2023-03-01T00:26:59;18.60;42.20
909;DHT22;441;51.192;6.788;2023-03-01T00:29:28;18.60;42.20
909;DHT22;441;51.192;6.788;2023-03-01T00:31:54;18.60;42.20
909;DHT22;441;51.192;6.788;2023-03-01T00:34:21;18.60;42.20
909;DHT22;441;51.192;6.788;2023-03-01T00:36:48;18.60;42.30
909;DHT22;441;51.192;6.788;2023-03-01T00:39:15;18.60;42.30
909;DHT22;441;51.192;6.788;2023-03-01T00:41:42;18.60;42.30
909;DHT22;441;51.192;6.788;2023-03-01T00:44:10;18.60;42.40
909;DHT22;441;51.192;6.788;2023-03-01T00:46:38;18.60;42.40
909;DHT22;441;51.192;6.788;2023-03-01T00:49:05;18.60;42.50
909;DHT22;441;51.192;6.788;2023-03-01T00:51:32;18.60;42.40
909;DHT22;441;51.192;6.788;2023-03-01T00:54:01;18.60;42.50
909;DHT22;441;51.192;6.788;2023-03-01T00:56:28;18.60;42.50
909;DHT22;441;51.192;6.788;2023-03-01T00:58:56;18.50;42.40
909;DHT22;441;51.192;6.788;2023-03-01T01:01:24;18.50;42.40
909;DHT22;441;51.192;6.788;2023-03-01T01:03:56;18.50;42.40
909;DHT22;441;51.192;6.788;2023-03-01T01:06:25;18.50;42.50
909;DHT22;441;51.192;6.788;2023-03-01T01:08:53;18.50;42.50
909;DHT22;441;51.192;6.788;2023-03-01T01:11:21;18.50;42.50
909;DHT22;441;51.192;6.788;2023-03-01T01:13:49;18.50;42.50
909;DHT22;441;51.192;6.788;2023-03-01T01:16:17;18.50;42.60
909;DHT22;441;51.192;6.788;2023-03-01T01:18:45;18.50;42.50
909;DHT22;441;51.192;6.788;2023-03-01T01:21:15;18.50;42.60
909;DHT22;441;51.192;6.788;2023-03-01T01:23:44;18.50;42.60
909;DHT22;441;51.192;6.788;2023-03-01T01:26:17;18.50;42.60
909;DHT22;441;51.192;6.788;2023-03-01T01:28:44;18.40;42.50
909;DHT22;441;51.192;6.788;2023-03-01T01:31:12;18.40;42.60
909;DHT22;441;51.192;6.788;2023-03-01T01:33:39;18.50;42.70
909;DHT22;441;51.192;6.788;2023-03-01T01:36:06;18.40;42.70
909;DHT22;441;51.192;6.788;2023-03-01T01:38:36;18.40;42.60
909;DHT22;441;51.192;6.788;2023-03-01T01:41:03;18.40;42.60
909;DHT22;441;51.192;6.788;2023-03-01T01:43:33;18.40;42.60
909;DHT22;441;51.192;6.788;2023-03-01T01:46:02;18.40;42.60
909;DHT22;441;51.192;6.788;2023-03-01T01:48:36;18.40;42.60
909;DHT22;441;51.192;6.788;2023-03-01T01:51:09;18.40;42.70
909;DHT22;441;51.192;6.788;2023-03-01T01:53:38;18.40;42.70
909;DHT22;441;51.192;6.788;2023-03-01T01:56:08;18.40;42.70
909;DHT22;441;51.192;6.788;2023-03-01T01:58:36;18.40;42.80
909;DHT22;441;51.192;6.788;2023-03-01T02:01:04;18.40;42.80
909;DHT22;441;51.192;6.788;2023-03-01T02:03:33;18.40;42.80
909;DHT22;441;51.192;6.788;2023-03-01T02:06:06;18.40;42.80
909;DHT22;441;51.192;6.788;2023-03-01T02:08:36;18.40;42.80
909;DHT22;441;51.192;6.788;2023-03-01T02:11:05;18.40;42.90
909;DHT22;441;51.192;6.788;2023-03-01T02:13:34;18.40;42.90
909;DHT22;441;51.192;6.788;2023-03-01T02:16:03;18.40;42.90
909;DHT22;441;51.192;6.788;2023-03-01T02:18:30;18.40;43.00
909;DHT22;441;51.192;6.788;2023-03-01T02:21:09;18.40;43.00
909;DHT22;441;51.192;6.788;2023-03-01T02:23:38;18.40;43.00
909;DHT22;441;51.192;6.788;2023-03-01T02:26:10;18.40;43.00
909;DHT22;441;51.192;6.788;2023-03-01T02:28:42;18.30;42.90
909;DHT22;441;51.192;6.788;2023-03-01T02:31:14;18.40;43.00
909;DHT22;441;51.192;6.788;2023-03-01T02:33:59;18.30;43.00
909;DHT22;441;51.192;6.788;2023-03-01T02:36:33;18.40;43.00
909;DHT22;441;51.192;6.788;2023-03-01T02:39:03;18.30;43.00
909;DHT22;441;51.192;6.788;2023-03-01T02:41:35;18.30;43.00
909;DHT22;441;51.192;6.788;2023-03-01T02:44:04;18.40;43.20
909;DHT22;441;51.192;6.788;2023-03-01T02:46:31;18.40;43.20
909;DHT22;441;51.192;6.788;2023-03-01T02:48:58;18.30;43.20
909;DHT22;441;51.192;6.788;2023-03-01T02:51:39;18.30;43.10
909;DHT22;441;51.192;6.788;2023-03-01T02:54:17;18.30;43.10
909;DHT22;441;51.192;6.788;2023-03-01T02:56:47;18.30;43.10
909;DHT22;441;51.192;6.788;2023-03-01T02:59:16;18.30;43.10
909;DHT22;441;51.192;6.788;2023-03-01T03:01:44;18.30;43.10
909;DHT22;441;51.192;6.788;2023-03-01T03:04:14;18.30;43.10
909;DHT22;441;51.192;6.788;2023-03-01T03:06:42;18.30;43.10
909;DHT22;441;51.192;6.788;2023-03-01T03:09:10;18.30;43.10
909;DHT22;441;51.192;6.788;2023-03-01T03:11:37;18.30;43.10
909;DHT22;441;51.192;6.788;2023-03-01T03:14:05;18.30;43.10
909;DHT22;441;51.192;6.788;2023-03-01T03:16:40;18.30;43.20
909;DHT22;441;51.192;6.788;2023-03-01T03:19:07;18.30;43.20
909;DHT22;441;51.192;6.788;2023-03-01T03:21:34;18.30;43.20
909;DHT22;441;51.192;6.788;2023-03-01T03:24:01;18.30;43.20
909;DHT22;441;51.192;6.788;2023-03-01T03:26:28;18.30;43.20
909;DHT22;441;51.192;6.788;2023-03-01T03:28:56;18.30;43.20
909;DHT22;441;51.192;6.788;2023-03-01T03:31:23;18.30;43.20
909;DHT22;441;51.192;6.788;2023-03-01T03:33:51;18.20;43.10
909;DHT22;441;51.192;6.788;2023-03-01T03:36:20;18.20;43.10
909;DHT22;441;51.192;6.788;2023-03-01T03:38:47;18.20;43.10
909;DHT22;441;51.192;6.788;2023-03-01T03:41:15;18.20;43.10
909;DHT22;441;51.192;6.788;2023-03-01T03:43:42;18.30;43.20
909;DHT22;441;51.192;6.788;2023-03-01T03:46:10;18.30;43.20
909;DHT22;441;51.192;6.788;2023-03-01T03:48:38;18.20;43.70
909;DHT22;441;51.192;6.788;2023-03-01T03:51:09;18.30;43.30
909;DHT22;441;51.192;6.788;2023-03-01T03:53:36;18.20;43.20
909;DHT22;441;51.192;6.788;2023-03-01T03:56:04;18.20;43.20
909;DHT22;441;51.192;6.788;2023-03-01T03:58:31;18.20;43.20
909;DHT22;441;51.192;6.788;2023-03-01T04:00:58;18.30;43.20
909;DHT22;441;51.192;6.788;2023-03-01T04:03:27;18.20;43.10
909;DHT22;441;51.192;6.788;2023-03-01T04:05:54;18.20;43.10
909;DHT22;441;51.192;6.788;2023-03-01T04:08:23;18.30;43.20
909;DHT22;441;51.192;6.788;2023-03-01T04:10:51;18.20;43.10
909;DHT22;441;51.192;6.788;2023-03-01T04:13:20;18.20;43.10
909;DHT22;441;51.192;6.788;2023-03-01T04:15:48;18.30;43.10
909;DHT22;441;51.192;6.788;2023-03-01T04:18:17;18.20;43.10
909;DHT22;441;51.192;6.788;2023-03-01T04:20:44;18.30;43.10
909;DHT22;441;51.192;6.788;2023-03-01T04:23:13;18.30;43.10
909;DHT22;441;51.192;6.788;2023-03-01T04:25:46;18.30;43.10
909;DHT22;441;51.192;6.788;2023-03-01T04:28:15;18.30;43.10
909;DHT22;441;51.192;6.788;2023-03-01T04:30:41;18.30;43.10
909;DHT22;441;51.192;6.788;2023-03-01T04:33:09;18.30;43.10
909;DHT22;441;51.192;6.788;2023-03-01T04:35:37;18.30;43.10
909;DHT22;441;51.192;6.788;2023-03-01T04:38:04;18.30;43.10
909;DHT22;441;51.192;6.788;2023-03-01T04:40:31;18.30;43.10
909;DHT22;441;51.192;6.788;2023-03-01T04:42:59;18.30;43.10
909;DHT22;441;51.192;6.788;2023-03-01T04:45:26;18.30;43.10
909;DHT22;441;51.192;6.788;2023-03-01T04:47:53;18.30;43.10
909;DHT22;441;51.192;6.788;2023-03-01T04:50:20;18.30;43.10
909;DHT22;441;51.192;6.788;2023-03-01T04:52:49;18.30;43.10
909;DHT22;441;51.192;6.788;2023-03-01T04:55:16;18.30;43.00
909;DHT22;441;51.192;6.788;2023-03-01T04:57:42;18.30;43.10
909;DHT22;441;51.192;6.788;2023-03-01T05:00:13;18.30;43.00
909;DHT22;441;51.192;6.788;2023-03-01T05:02:50;18.40;43.00
909;DHT22;441;51.192;6.788;2023-03-01T05:05:20;18.30;43.00
909;DHT22;441;51.192;6.788;2023-03-01T05:07:51;18.30;43.00
909;DHT22;441;51.192;6.788;2023-03-01T05:10:18;18.30;42.90
909;DHT22;441;51.192;6.788;2023-03-01T05:12:45;18.40;43.10
909;DHT22;441;51.192;6.788;2023-03-01T05:15:14;18.30;43.10
909;DHT22;441;51.192;6.788;2023-03-01T05:17:41;18.40;43.20
909;DHT22;441;51.192;6.788;2023-03-01T05:20:09;18.40;43.20
909;DHT22;441;51.192;6.788;2023-03-01T05:22:37;18.40;43.20
909;DHT22;441;51.192;6.788;2023-03-01T05:25:04;18.40;43.20
909;DHT22;441;51.192;6.788;2023-03-01T05:27:32;18.40;42.50
909;DHT22;441;51.192;6.788;2023-03-01T05:29:59;18.40;42.40
909;DHT22;441;51.192;6.788;2023-03-01T05:32:40;18.40;43.30
909;DHT22;441;51.192;6.788;2023-03-01T05:35:09;18.50;42.80
909;DHT22;441;51.192;6.788;2023-03-01T05:37:39;18.50;42.80
909;DHT22;441;51.192;6.788;2023-03-01T05:40:08;18.60;43.20
909;DHT22;441;51.192;6.788;2023-03-01T05:42:42;18.60;43.80
909;DHT22;441;51.192;6.788;2023-03-01T05:45:09;18.60;44.10
909;DHT22;441;51.192;6.788;2023-03-01T05:47:39;18.60;44.40
909;DHT22;441;51.192;6.788;2023-03-01T05:50:10;18.60;43.80
909;DHT22;441;51.192;6.788;2023-03-01T05:52:37;18.60;44.60
909;DHT22;441;51.192;6.788;2023-03-01T05:55:05;18.70;47.00
909;DHT22;441;51.192;6.788;2023-03-01T05:57:32;18.70;48.20
909;DHT22;441;51.192;6.788;2023-03-01T05:59:59;18.80;48.60
909;DHT22;441;51.192;6.788;2023-03-01T06:02:26;18.80;48.70
909;DHT22;441;51.192;6.788;2023-03-01T06:04:56;18.90;48.40
909;DHT22;441;51.192;6.788;2023-03-01T06:07:23;19.00;48.80
909;DHT22;441;51.192;6.788;2023-03-01T06:09:49;19.10;48.00
909;DHT22;441;51.192;6.788;2023-03-01T06:12:16;19.20;47.40
909;DHT22;441;51.192;6.788;2023-03-01T06:14:45;19.20;47.20
909;DHT22;441;51.192;6.788;2023-03-01T06:17:12;19.40;47.20
909;DHT22;441;51.192;6.788;2023-03-01T06:19:39;19.50;47.00
909;DHT22;441;51.192;6.788;2023-03-01T06:22:07;19.50;46.50
909;DHT22;441;51.192;6.788;2023-03-01T06:24:34;19.70;46.30
909;DHT22;441;51.192;6.788;2023-03-01T06:27:01;19.70;46.10
909;DHT22;441;51.192;6.788;2023-03-01T06:29:28;19.80;45.90
909;DHT22;441;51.192;6.788;2023-03-01T06:31:55;19.90;45.80
909;DHT22;441;51.192;6.788;2023-03-01T06:34:22;19.90;45.80
909;DHT22;441;51.192;6.788;2023-03-01T06:36:49;20.00;45.80
909;DHT22;441;51.192;6.788;2023-03-01T06:39:17;20.00;45.80
909;DHT22;441;51.192;6.788;2023-03-01T06:41:44;20.10;45.90
909;DHT22;441;51.192;6.788;2023-03-01T06:44:11;20.10;45.90
909;DHT22;441;51.192;6.788;2023-03-01T06:46:38;20.10;46.00
909;DHT22;441;51.192;6.788;2023-03-01T06:49:05;20.10;46.10
909;DHT22;441;51.192;6.788;2023-03-01T06:51:35;20.00;48.20
909;DHT22;441;51.192;6.788;2023-03-01T06:54:02;20.00;48.60
909;DHT22;441;51.192;6.788;2023-03-01T06:56:31;20.00;48.60
909;DHT22;441;51.192;6.788;2023-03-01T06:58:57;20.10;48.60
909;DHT22;441;51.192;6.788;2023-03-01T07:01:24;20.10;48.50
909;DHT22;441;51.192;6.788;2023-03-01T07:03:52;20.10;48.20
909;DHT22;441;51.192;6.788;2023-03-01T07:06:18;20.10;48.40
909;DHT22;441;51.192;6.788;2023-03-01T07:08:45;20.10;47.70
909;DHT22;441;51.192;6.788;2023-03-01T07:11:12;20.10;47.40
909;DHT22;441;51.192;6.788;2023-03-01T07:13:41;20.10;47.20
909;DHT22;441;51.192;6.788;2023-03-01T07:16:08;20.10;47.10
909;DHT22;441;51.192;6.788;2023-03-01T07:18:35;20.10;46.80
909;DHT22;441;51.192;6.788;2023-03-01T07:21:06;20.10;46.70
909;DHT22;441;51.192;6.788;2023-03-01T07:23:33;20.20;46.60
909;DHT22;441;51.192;6.788;2023-03-01T07:26:00;20.20;46.40
909;DHT22;441;51.192;6.788;2023-03-01T07:28:27;20.20;46.30
909;DHT22;441;51.192;6.788;2023-03-01T07:30:58;20.20;46.10
909;DHT22;441;51.192;6.788;2023-03-01T07:33:26;20.20;46.10
909;DHT22;441;51.192;6.788;2023-03-01T07:35:56;20.20;45.90
909;DHT22;441;51.192;6.788;2023-03-01T07:38:24;20.20;45.80
909;DHT22;441;51.192;6.788;2023-03-01T07:40:51;20.20;45.70
909;DHT22;441;51.192;6.788;2023-03-01T07:43:18;20.20;45.60
909;DHT22;441;51.192;6.788;2023-03-01T07:45:46;20.20;45.50
909;DHT22;441;51.192;6.788;2023-03-01T07:48:14;20.20;45.40
909;DHT22;441;51.192;6.788;2023-03-01T07:50:41;20.30;45.30
909;DHT22;441;51.192;6.788;2023-03-01T07:53:08;20.30;45.30
909;DHT22;441;51.192;6.788;2023-03-01T07:55:35;20.30;45.20
909;DHT22;441;51.192;6.788;2023-03-01T07:58:02;20.30;45.10
909;DHT22;441;51.192;6.788;2023-03-01T08:00:29;20.30;45.10
909;DHT22;441;51.192;6.788;2023-03-01T08:02:59;20.30;45.00
909;DHT22;441;51.192;6.788;2023-03-01T08:05:27;20.30;44.90
909;DHT22;441;51.192;6.788;2023-03-01T08:07:54;20.30;44.80
909;DHT22;441;51.192;6.788;2023-03-01T08:10:21;20.40;44.80
909;DHT22;441;51.192;6.788;2023-03-01T08:12:52;20.40;44.80
909;DHT22;441;51.192;6.788;2023-03-01T08:15:19;20.40;44.70
909;DHT22;441;51.192;6.788;2023-03-01T08:17:48;20.40;44.70
909;DHT22;441;51.192;6.788;2023-03-01T08:20:16;20.40;44.60
909;DHT22;441;51.192;6.788;2023-03-01T08:22:44;20.40;44.60
909;DHT22;441;51.192;6.788;2023-03-01T08:25:11;20.40;44.50
909;DHT22;441;51.192;6.788;2023-03-01T08:27:38;20.40;44.40
909;DHT22;441;51.192;6.788;2023-03-01T08:30:06;20.40;44.40
909;DHT22;441;51.192;6.788;2023-03-01T08:32:36;20.40;44.30
909;DHT22;441;51.192;6.788;2023-03-01T08:35:03;20.50;44.40
909;DHT22;441;51.192;6.788;2023-03-01T08:37:30;20.50;44.30
909;DHT22;441;51.192;6.788;2023-03-01T08:39:59;20.50;44.30
909;DHT22;441;51.192;6.788;2023-03-01T08:42:26;20.50;44.20
909;DHT22;441;51.192;6.788;2023-03-01T08:44:53;20.50;44.20
909;DHT22;441;51.192;6.788;2023-03-01T08:47:20;20.50;44.10
909;DHT22;441;51.192;6.788;2023-03-01T08:49:49;20.50;44.10
909;DHT22;441;51.192;6.788;2023-03-01T08:52:16;20.50;44.00
909;DHT22;441;51.192;6.788;2023-03-01T08:54:43;20.50;44.00
909;DHT22;441;51.192;6.788;2023-03-01T08:57:11;20.50;43.90
909;DHT22;441;51.192;6.788;2023-03-01T08:59:38;20.60;44.00
909;DHT22;441;51.192;6.788;2023-03-01T09:02:10;20.60;43.90
909;DHT22;441;51.192;6.788;2023-03-01T09:04:38;20.60;43.90
909;DHT22;441;51.192;6.788;2023-03-01T09:07:04;20.60;43.90
909;DHT22;441;51.192;6.788;2023-03-01T09:09:31;20.60;43.80
909;DHT22;441;51.192;6.788;2023-03-01T09:11:58;20.60;43.80
909;DHT22;441;51.192;6.788;2023-03-01T09:14:26;20.60;43.80
909;DHT22;441;51.192;6.788;2023-03-01T09:16:53;20.60;43.70
909;DHT22;441;51.192;6.788;2023-03-01T09:19:20;20.60;43.70
909;DHT22;441;51.192;6.788;2023-03-01T09:21:47;20.60;43.60
909;DHT22;441;51.192;6.788;2023-03-01T09:24:20;20.60;43.50
909;DHT22;441;51.192;6.788;2023-03-01T09:26:48;20.60;43.50
909;DHT22;441;51.192;6.788;2023-03-01T09:29:15;20.60;43.50
909;DHT22;441;51.192;6.788;2023-03-01T09:31:44;20.60;43.50
909;DHT22;441;51.192;6.788;2023-03-01T09:34:11;20.70;43.60
909;DHT22;441;51.192;6.788;2023-03-01T09:36:39;20.70;43.60
909;DHT22;441;51.192;6.788;2023-03-01T09:39:06;20.70;43.50
909;DHT22;441;51.192;6.788;2023-03-01T09:41:44;20.70;43.50
909;DHT22;441;51.192;6.788;2023-03-01T09:44:21;20.70;43.40
909;DHT22;441;51.192;6.788;2023-03-01T09:46:51;20.70;43.40
909;DHT22;441;51.192;6.788;2023-03-01T09:49:21;20.70;43.40
909;DHT22;441;51.192;6.788;2023-03-01T09:51:56;20.70;43.40
909;DHT22;441;51.192;6.788;2023-03-01T09:54:24;20.70;43.30
909;DHT22;441;51.192;6.788;2023-03-01T09:57:03;20.80;43.30
909;DHT22;441;51.192;6.788;2023-03-01T09:59:42;20.80;43.30
909;DHT22;441;51.192;6.788;2023-03-01T10:02:23;20.80;43.30
909;DHT22;441;51.192;6.788;2023-03-01T10:04:52;20.70;43.30
909;DHT22;441;51.192;6.788;2023-03-01T10:07:28;20.70;43.20
909;DHT22;441;51.192;6.788;2023-03-01T10:09:57;20.80;43.30
909;DHT22;441;51.192;6.788;2023-03-01T10:12:30;20.80;43.20
909;DHT22;441;51.192;6.788;2023-03-01T10:15:04;20.80;43.20
909;DHT22;441;51.192;6.788;2023-03-01T10:17:36;20.80;43.20
909;DHT22;441;51.192;6.788;2023-03-01T10:20:19;20.80;43.20
909;DHT22;441;51.192;6.788;2023-03-01T10:22:47;20.80;43.20
909;DHT22;441;51.192;6.788;2023-03-01T10:25:23;20.80;43.20
909;DHT22;441;51.192;6.788;2023-03-01T10:27:52;20.80;43.10
909;DHT22;441;51.192;6.788;2023-03-01T10:30:22;20.90;43.20
909;DHT22;441;51.192;6.788;2023-03-01T10:32:54;20.90;43.10
909;DHT22;441;51.192;6.788;2023-03-01T10:35:22;20.90;43.10
909;DHT22;441;51.192;6.788;2023-03-01T10:38:03;20.90;43.10
909;DHT22;441;51.192;6.788;2023-03-01T10:40:30;20.90;43.10
909;DHT22;441;51.192;6.788;2023-03-01T10:42:58;20.90;43.10
909;DHT22;441;51.192;6.788;2023-03-01T10:45:32;20.90;43.00
909;DHT22;441;51.192;6.788;2023-03-01T10:48:08;20.90;43.50
909;DHT22;441;51.192;6.788;2023-03-01T10:50:37;20.90;43.00
909;DHT22;441;51.192;6.788;2023-03-01T10:53:21;20.90;42.90
909;DHT22;441;51.192;6.788;2023-03-01T10:55:57;20.90;43.00
909;DHT22;441;51.192;6.788;2023-03-01T10:58:25;20.90;43.00
909;DHT22;441;51.192;6.788;2023-03-01T11:00:54;20.90;43.00
909;DHT22;441;51.192;6.788;2023-03-01T11:03:24;21.00;43.10
909;DHT22;441;51.192;6.788;2023-03-01T11:05:55;20.90;42.90
909;DHT22;441;51.192;6.788;2023-03-01T11:08:46;21.00;43.10
909;DHT22;441;51.192;6.788;2023-03-01T11:11:23;21.00;43.00
909;DHT22;441;51.192;6.788;2023-03-01T11:13:56;21.00;43.00
909;DHT22;441;51.192;6.788;2023-03-01T11:16:31;21.00;43.00
909;DHT22;441;51.192;6.788;2023-03-01T11:19:13;21.00;42.90
909;DHT22;441;51.192;6.788;2023-03-01T11:21:44;21.00;42.90
909;DHT22;441;51.192;6.788;2023-03-01T11:24:14;21.00;42.90
909;DHT22;441;51.192;6.788;2023-03-01T11:26:45;21.10;43.00
909;DHT22;441;51.192;6.788;2023-03-01T11:29:27;21.10;43.00
909;DHT22;441;51.192;6.788;2023-03-01T11:31:58;21.10;43.00
909;DHT22;441;51.192;6.788;2023-03-01T11:34:41;21.10;42.90
909;DHT22;441;51.192;6.788;2023-03-01T11:37:17;21.10;42.90
909;DHT22;441;51.192;6.788;2023-03-01T11:39:53;21.10;42.90
909;DHT22;441;51.192;6.788;2023-03-01T11:42:27;21.10;42.90
909;DHT22;441;51.192;6.788;2023-03-01T11:45:06;21.10;42.90
909;DHT22;441;51.192;6.788;2023-03-01T11:47:47;21.10;42.90
909;DHT22;441;51.192;6.788;2023-03-01T11:50:28;21.10;42.90
909;DHT22;441;51.192;6.788;2023-03-01T11:56:09;21.20;43.00
909;DHT22;441;51.192;6.788;2023-03-01T11:58:58;21.20;43.00
909;DHT22;441;51.192;6.788;2023-03-01T12:01:35;21.20;43.00
909;DHT22;441;51.192;6.788;2023-03-01T12:06:59;21.20;42.90
909;DHT22;441;51.192;6.788;2023-03-01T12:09:37;21.20;42.90
909;DHT22;441;51.192;6.788;2023-03-01T12:12:18;21.20;42.90
909;DHT22;441;51.192;6.788;2023-03-01T12:14:57;21.20;42.90
909;DHT22;441;51.192;6.788;2023-03-01T12:17:47;21.20;42.80
909;DHT22;441;51.192;6.788;2023-03-01T12:20:25;21.30;42.90
909;DHT22;441;51.192;6.788;2023-03-01T12:23:16;21.30;42.90
909;DHT22;441;51.192;6.788;2023-03-01T12:25:53;21.30;42.90
909;DHT22;441;51.192;6.788;2023-03-01T12:28:38;21.30;42.90
909;DHT22;441;51.192;6.788;2023-03-01T12:31:32;21.30;42.80
909;DHT22;441;51.192;6.788;2023-03-01T12:34:12;21.30;42.80
909;DHT22;441;51.192;6.788;2023-03-01T12:37:10;21.30;42.80
909;DHT22;441;51.192;6.788;2023-03-01T12:39:51;21.30;42.80
909;DHT22;441;51.192;6.788;2023-03-01T12:42:25;21.30;42.70
909;DHT22;441;51.192;6.788;2023-03-01T12:45:31;21.30;42.70
909;DHT22;441;51.192;6.788;2023-03-01T12:48:14;21.30;42.70
909;DHT22;441;51.192;6.788;2023-03-01T12:50:48;21.40;42.70
909;DHT22;441;51.192;6.788;2023-03-01T12:53:24;21.40;42.70
909;DHT22;441;51.192;6.788;2023-03-01T12:55:58;21.30;42.60
909;DHT22;441;51.192;6.788;2023-03-01T12:58:31;21.40;42.70
909;DHT22;441;51.192;6.788;2023-03-01T13:01:20;21.40;42.70
909;DHT22;441;51.192;6.788;2023-03-01T13:04:02;21.40;42.60
909;DHT22;441;51.192;6.788;2023-03-01T13:06:35;21.40;42.60
909;DHT22;441;51.192;6.788;2023-03-01T13:09:14;21.40;42.60
909;DHT22;441;51.192;6.788;2023-03-01T13:11:43;21.50;43.20
909;DHT22;441;51.192;6.788;2023-03-01T13:14:44;21.40;42.50
909;DHT22;441;51.192;6.788;2023-03-01T13:17:39;21.40;42.50
909;DHT22;441;51.192;6.788;2023-03-01T13:20:13;21.50;42.50
909;DHT22;441;51.192;6.788;2023-03-01T13:22:41;21.50;42.50
909;DHT22;441;51.192;6.788;2023-03-01T13:25:16;21.50;42.50
909;DHT22;441;51.192;6.788;2023-03-01T13:27:46;21.50;42.40
909;DHT22;441;51.192;6.788;2023-03-01T13:30:43;21.50;42.40
909;DHT22;441;51.192;6.788;2023-03-01T13:33:44;21.60;42.50
909;DHT22;441;51.192;6.788;2023-03-01T13:38:56;21.60;42.40
909;DHT22;441;51.192;6.788;2023-03-01T13:41:48;21.60;42.40
909;DHT22;441;51.192;6.788;2023-03-01T13:44:30;21.60;42.40
909;DHT22;441;51.192;6.788;2023-03-01T13:47:02;21.60;42.40
909;DHT22;441;51.192;6.788;2023-03-01T13:49:36;21.60;42.40
909;DHT22;441;51.192;6.788;2023-03-01T13:55:17;21.70;42.40
909;DHT22;441;51.192;6.788;2023-03-01T13:57:47;21.70;42.40
909;DHT22;441;51.192;6.788;2023-03-01T14:00:32;21.70;42.30
909;DHT22;441;51.192;6.788;2023-03-01T14:03:10;21.80;42.40
909;DHT22;441;51.192;6.788;2023-03-01T14:05:38;21.70;42.30
909;DHT22;441;51.192;6.788;2023-03-01T14:08:17;21.70;42.30
909;DHT22;441;51.192;6.788;2023-03-01T14:13:41;21.80;42.30
909;DHT22;441;51.192;6.788;2023-03-01T14:28:00;21.80;41.80
909;DHT22;441;51.192;6.788;2023-03-01T14:30:32;21.10;40.10
909;DHT22;441;51.192;6.788;2023-03-01T14:33:02;21.10;40.00
909;DHT22;441;51.192;6.788;2023-03-01T14:35:31;21.00;40.10
909;DHT22;441;51.192;6.788;2023-03-01T14:37:58;20.90;40.10
909;DHT22;441;51.192;6.788;2023-03-01T14:40:27;21.00;40.70
909;DHT22;441;51.192;6.788;2023-03-01T14:42:58;21.20;41.00
909;DHT22;441;51.192;6.788;2023-03-01T14:45:28;21.30;40.90
909;DHT22;441;51.192;6.788;2023-03-01T14:47:59;21.30;40.80
909;DHT22;441;51.192;6.788;2023-03-01T14:50:28;21.40;40.80
909;DHT22;441;51.192;6.788;2023-03-01T14:52:58;21.40;40.80
909;DHT22;441;51.192;6.788;2023-03-01T14:55:29;21.20;40.30
909;DHT22;441;51.192;6.788;2023-03-01T14:57:58;21.10;40.10
909;DHT22;441;51.192;6.788;2023-03-01T15:00:27;21.10;40.20
909;DHT22;441;51.192;6.788;2023-03-01T15:02:56;21.10;40.50
909;DHT22;441;51.192;6.788;2023-03-01T15:05:29;21.10;40.40
909;DHT22;441;51.192;6.788;2023-03-01T15:07:57;21.20;40.30
909;DHT22;441;51.192;6.788;2023-03-01T15:10:26;21.10;40.20
909;DHT22;441;51.192;6.788;2023-03-01T15:12:53;21.10;40.20
909;DHT22;441;51.192;6.788;2023-03-01T15:15:31;21.10;40.20
909;DHT22;441;51.192;6.788;2023-03-01T15:18:00;21.10;40.30
909;DHT22;441;51.192;6.788;2023-03-01T15:20:29;21.00;40.20
909;DHT22;441;51.192;6.788;2023-03-01T15:23:01;21.10;40.20
909;DHT22;441;51.192;6.788;2023-03-01T15:25:29;21.00;40.10
909;DHT22;441;51.192;6.788;2023-03-01T15:27:58;21.10;40.30
909;DHT22;441;51.192;6.788;2023-03-01T15:30:30;21.10;40.30
909;DHT22;441;51.192;6.788;2023-03-01T15:33:31;21.10;40.20
909;DHT22;441;51.192;6.788;2023-03-01T15:35:59;21.10;40.10
909;DHT22;441;51.192;6.788;2023-03-01T15:38:32;21.10;40.20
909;DHT22;441;51.192;6.788;2023-03-01T15:41:01;21.10;40.20
909;DHT22;441;51.192;6.788;2023-03-01T15:43:40;21.10;40.30
909;DHT22;441;51.192;6.788;2023-03-01T15:46:20;21.10;40.30
909;DHT22;441;51.192;6.788;2023-03-01T15:48:50;21.00;40.20
909;DHT22;441;51.192;6.788;2023-03-01T15:51:22;21.00;40.30
909;DHT22;441;51.192;6.788;2023-03-01T15:53:51;21.00;40.30
909;DHT22;441;51.192;6.788;2023-03-01T15:56:19;21.00;40.30
909;DHT22;441;51.192;6.788;2023-03-01T15:58:46;21.00;40.30
909;DHT22;441;51.192;6.788;2023-03-01T16:01:15;21.00;40.30
909;DHT22;441;51.192;6.788;2023-03-01T16:03:43;21.00;40.40
909;DHT22;441;51.192;6.788;2023-03-01T16:06:11;21.00;40.40
909;DHT22;441;51.192;6.788;2023-03-01T16:08:39;21.00;40.40
909;DHT22;441;51.192;6.788;2023-03-01T16:11:13;21.00;40.40
909;DHT22;441;51.192;6.788;2023-03-01T16:13:41;21.00;40.50
909;DHT22;441;51.192;6.788;2023-03-01T16:16:09;21.00;40.40
909;DHT22;441;51.192;6.788;2023-03-01T16:18:39;21.00;40.40
909;DHT22;441;51.192;6.788;2023-03-01T16:21:06;21.00;41.00
909;DHT22;441;51.192;6.788;2023-03-01T16:23:33;21.00;40.40
909;DHT22;441;51.192;6.788;2023-03-01T16:26:00;21.00;40.40
909;DHT22;441;51.192;6.788;2023-03-01T16:28:27;21.00;40.40
909;DHT22;441;51.192;6.788;2023-03-01T16:30:54;20.90;40.30
909;DHT22;441;51.192;6.788;2023-03-01T16:33:20;20.90;40.40
909;DHT22;441;51.192;6.788;2023-03-01T16:35:53;21.00;40.40
909;DHT22;441;51.192;6.788;2023-03-01T16:38:21;21.10;41.30
909;DHT22;441;51.192;6.788;2023-03-01T16:40:49;21.30;42.00
909;DHT22;441;51.192;6.788;2023-03-01T16:43:16;21.50;42.00
909;DHT22;441;51.192;6.788;2023-03-01T16:45:43;21.50;41.30
909;DHT22;441;51.192;6.788;2023-03-01T16:48:12;21.50;40.80
909;DHT22;441;51.192;6.788;2023-03-01T16:50:40;21.60;40.90
909;DHT22;441;51.192;6.788;2023-03-01T16:53:08;21.60;40.70
909;DHT22;441;51.192;6.788;2023-03-01T16:55:35;21.70;40.70
909;DHT22;441;51.192;6.788;2023-03-01T16:58:03;21.80;40.60
909;DHT22;441;51.192;6.788;2023-03-01T17:00:31;21.80;40.60
909;DHT22;441;51.192;6.788;2023-03-01T17:02:57;21.80;40.50
909;DHT22;441;51.192;6.788;2023-03-01T17:05:24;21.80;40.50
909;DHT22;441;51.192;6.788;2023-03-01T17:07:51;21.80;40.20
909;DHT22;441;51.192;6.788;2023-03-01T17:10:23;21.70;40.10
909;DHT22;441;51.192;6.788;2023-03-01T17:12:50;21.70;40.10
909;DHT22;441;51.192;6.788;2023-03-01T17:15:17;21.70;40.10
909;DHT22;441;51.192;6.788;2023-03-01T17:17:44;21.40;39.50
909;DHT22;441;51.192;6.788;2023-03-01T17:20:12;21.30;39.70
909;DHT22;441;51.192;6.788;2023-03-01T17:22:39;21.20;39.80